Time;durP1;ratioP1;P1;durP2;ratioP2;P2;SDS_P1;SDS_P2;PMS_P1;PMS_P2;Temp;Humidity;BMP_temperature;BMP_pressure;BME280_temperature;BME280_humidity;BME280_pressure;Samples;Min_cycle;Max_cycle;Signal;HPM_P1;HPM_P2
2023/10/18 00:02:06;;;;;;;;;;;5.40;90.80;;;;;;5073524;28;19904;-44
2023/10/18 00:04:33;;;;;;;;;;;5.40;90.90;;;;;;5083192;28;20383;-44
2023/10/18 00:06:59;;;;;;;;;;;5.40;90.90;;;;;;5092532;28;20329;-45
2023/10/18 00:12:09;;;;;;;;;;;5.40;90.90;;;;;;5063804;28;20443;-45
2023/10/18 00:14:35;;;;;;;;;;;5.50;90.90;;;;;;5053031;28;19909;-47
2023/10/18 00:17:01;;;;;;;;;;;5.40;90.80;;;;;;5065454;28;19920;-46
2023/10/18 00:19:27;;;;;;;;;;;5.40;90.80;;;;;;5072945;28;19912;-44
2023/10/18 00:21:53;;;;;;;;;;;5.40;90.90;;;;;;5055515;28;19908;-46
2023/10/18 00:24:20;;;;;;;;;;;5.40;90.90;;;;;;5067962;28;19959;-43
2023/10/18 00:26:45;;;;;;;;;;;5.40;90.90;;;;;;5053153;28;19919;-44
2023/10/18 00:29:12;;;;;;;;;;;5.40;90.90;;;;;;5053137;28;20380;-44
2023/10/18 00:31:39;;;;;;;;;;;5.40;90.90;;;;;;5053261;28;20300;-45
2023/10/18 00:34:09;;;;;;;;;;;5.40;90.90;;;;;;5060997;28;19935;-46
2023/10/18 00:36:35;;;;;;;;;;;5.40;90.90;;;;;;5070181;28;20353;-44
2023/10/18 00:39:14;;;;;;;;;;;5.30;91.00;;;;;;5062994;28;19951;-45
2023/10/18 00:41:44;;;;;;;;;;;5.40;90.90;;;;;;5054004;28;19958;-44
2023/10/18 00:44:12;;;;;;;;;;;5.30;91.00;;;;;;5072825;28;19908;-44
2023/10/18 00:46:39;;;;;;;;;;;5.30;91.00;;;;;;5073083;28;19986;-45
2023/10/18 00:49:17;;;;;;;;;;;5.30;91.00;;;;;;5072599;28;19909;-43
2023/10/18 00:51:44;;;;;;;;;;;5.30;91.00;;;;;;5065801;28;19954;-46
2023/10/18 00:54:15;;;;;;;;;;;5.30;91.00;;;;;;5072338;28;20310;-43
2023/10/18 00:56:46;;;;;;;;;;;5.20;91.00;;;;;;5062357;28;19908;-47
2023/10/18 00:59:21;;;;;;;;;;;5.30;91.00;;;;;;5053105;28;19999;-45
2023/10/18 01:01:58;;;;;;;;;;;5.20;91.00;;;;;;5053061;28;19920;-45
2023/10/18 01:04:28;;;;;;;;;;;5.20;91.00;;;;;;5065286;28;19912;-45
2023/10/18 01:06:58;;;;;;;;;;;5.20;90.90;;;;;;5070705;28;19909;-43
2023/10/18 01:09:24;;;;;;;;;;;5.20;91.00;;;;;;5068750;28;19966;-46
2023/10/18 01:11:52;;;;;;;;;;;5.20;90.90;;;;;;5088566;28;19935;-47
2023/10/18 01:14:21;;;;;;;;;;;5.20;91.00;;;;;;5096155;28;19923;-44
2023/10/18 01:16:48;;;;;;;;;;;5.20;90.90;;;;;;5080555;28;19908;-44
2023/10/18 01:19:15;;;;;;;;;;;5.10;90.90;;;;;;5084941;28;20376;-44
2023/10/18 01:21:45;;;;;;;;;;;5.20;90.90;;;;;;5096573;28;19904;-43
2023/10/18 01:24:16;;;;;;;;;;;5.10;90.90;;;;;;5093208;28;19973;-47
2023/10/18 01:26:46;;;;;;;;;;;5.10;90.80;;;;;;5096420;28;20348;-44
2023/10/18 01:29:13;;;;;;;;;;;5.10;90.90;;;;;;5096238;28;19946;-44
2023/10/18 01:31:44;;;;;;;;;;;5.10;90.80;;;;;;5096715;28;19907;-46
2023/10/18 01:34:12;;;;;;;;;;;5.10;90.90;;;;;;5091404;28;19954;-44
2023/10/18 01:36:41;;;;;;;;;;;5.10;90.80;;;;;;5096408;28;19907;-46
2023/10/18 01:39:18;;;;;;;;;;;5.00;90.80;;;;;;5094340;28;19916;-45
2023/10/18 01:41:54;;;;;;;;;;;5.10;90.90;;;;;;5093393;28;20273;-44
2023/10/18 01:44:30;;;;;;;;;;;5.00;90.80;;;;;;5095174;28;19908;-44
2023/10/18 01:47:09;;;;;;;;;;;5.10;91.00;;;;;;5092327;28;19916;-43
2023/10/18 01:49:43;;;;;;;;;;;5.10;90.90;;;;;;5075929;28;19904;-44
2023/10/18 01:52:12;;;;;;;;;;;5.00;91.00;;;;;;5076116;28;19912;-47
2023/10/18 01:54:41;;;;;;;;;;;5.00;91.00;;;;;;5089969;28;20321;-44
2023/10/18 01:57:11;;;;;;;;;;;5.00;91.00;;;;;;5095294;28;20372;-44
2023/10/18 01:59:49;;;;;;;;;;;5.00;91.10;;;;;;5095587;28;19908;-44
2023/10/18 02:02:16;;;;;;;;;;;5.10;91.20;;;;;;5096052;28;19912;-44
2023/10/18 02:04:45;;;;;;;;;;;5.00;91.20;;;;;;5091281;28;19915;-44
2023/10/18 02:07:17;;;;;;;;;;;5.00;91.10;;;;;;5075584;28;19905;-44
2023/10/18 02:09:48;;;;;;;;;;;5.00;91.20;;;;;;5085500;28;19949;-43
2023/10/18 02:12:21;;;;;;;;;;;5.00;91.20;;;;;;5075638;28;19932;-44
2023/10/18 02:14:59;;;;;;;;;;;5.00;91.30;;;;;;5095438;28;20321;-44
2023/10/18 02:17:27;;;;;;;;;;;5.00;91.30;;;;;;5095784;28;19938;-44
2023/10/18 02:19:54;;;;;;;;;;;5.10;91.30;;;;;;5091577;28;19927;-44
2023/10/18 02:22:19;;;;;;;;;;;5.10;91.30;;;;;;5075264;28;20349;-44
2023/10/18 02:24:46;;;;;;;;;;;5.00;91.30;;;;;;5085898;28;19915;-45
2023/10/18 02:27:19;;;;;;;;;;;5.00;91.30;;;;;;5091464;28;19907;-45
2023/10/18 02:29:46;;;;;;;;;;;5.10;91.40;;;;;;5095768;28;20289;-43
2023/10/18 02:34:58;;;;;;;;;;;5.10;91.50;;;;;;5093651;28;20411;-43
2023/10/18 02:37:25;;;;;;;;;;;5.10;91.50;;;;;;5095285;28;19915;-44
2023/10/18 02:39:52;;;;;;;;;;;5.10;91.60;;;;;;5090855;28;19905;-43
2023/10/18 02:42:20;;;;;;;;;;;5.10;91.50;;;;;;5075196;28;19936;-43
2023/10/18 02:44:48;;;;;;;;;;;5.10;91.60;;;;;;5087378;28;20454;-44
2023/10/18 02:49:58;;;;;;;;;;;5.20;91.90;;;;;;5094882;28;19950;-43
2023/10/18 02:52:30;;;;;;;;;;;5.20;91.90;;;;;;5088854;28;20295;-43
2023/10/18 02:54:57;;;;;;;;;;;5.30;92.10;;;;;;5082730;28;20399;-43
2023/10/18 02:57:24;;;;;;;;;;;5.40;92.20;;;;;;5090589;28;19965;-43
2023/10/18 02:59:51;;;;;;;;;;;5.40;92.10;;;;;;5074620;28;19904;-43
2023/10/18 03:02:23;;;;;;;;;;;5.40;92.00;;;;;;5074636;28;19905;-43
2023/10/18 03:04:49;;;;;;;;;;;5.40;92.10;;;;;;5079492;28;20367;-43
2023/10/18 03:07:16;;;;;;;;;;;5.40;92.10;;;;;;5079758;28;19913;-44
2023/10/18 03:09:41;;;;;;;;;;;5.40;92.00;;;;;;5078319;28;19912;-43
2023/10/18 03:12:16;;;;;;;;;;;5.40;92.00;;;;;;5080532;28;19924;-43
2023/10/18 03:14:54;;;;;;;;;;;5.40;91.90;;;;;;5054168;28;19912;-46
2023/10/18 03:17:24;;;;;;;;;;;5.40;91.90;;;;;;5054233;28;19909;-45
2023/10/18 03:19:55;;;;;;;;;;;5.40;91.90;;;;;;5054193;28;19916;-45
2023/10/18 03:22:26;;;;;;;;;;;5.40;92.00;;;;;;5063692;28;20014;-44
2023/10/18 03:24:59;;;;;;;;;;;5.40;92.00;;;;;;5056791;28;19916;-44
2023/10/18 03:27:33;;;;;;;;;;;5.40;92.10;;;;;;5068868;28;19966;-44
2023/10/18 03:30:17;;;;;;;;;;;5.40;92.10;;;;;;5070622;28;19995;-43
2023/10/18 03:32:44;;;;;;;;;;;5.40;92.10;;;;;;5074045;28;19911;-44
2023/10/18 03:35:13;;;;;;;;;;;5.40;92.20;;;;;;5066581;28;20011;-45
2023/10/18 03:37:39;;;;;;;;;;;5.40;92.20;;;;;;5053842;28;19919;-48
2023/10/18 03:40:19;;;;;;;;;;;5.40;92.30;;;;;;5062525;28;19912;-44
2023/10/18 03:42:47;;;;;;;;;;;5.40;92.30;;;;;;5054009;28;19970;-43
2023/10/18 03:45:20;;;;;;;;;;;5.40;92.20;;;;;;5065933;28;19908;-43
2023/10/18 03:47:57;;;;;;;;;;;5.40;92.30;;;;;;5062643;28;19917;-43
2023/10/18 03:50:31;;;;;;;;;;;5.40;92.20;;;;;;5055541;28;19931;-43
2023/10/18 03:52:57;;;;;;;;;;;5.40;92.20;;;;;;5073455;28;20391;-45
2023/10/18 03:55:36;;;;;;;;;;;5.40;92.10;;;;;;5072890;28;19912;-44
2023/10/18 03:58:04;;;;;;;;;;;5.40;92.00;;;;;;5064353;28;19931;-43
2023/10/18 04:00:38;;;;;;;;;;;5.30;92.00;;;;;;5073203;28;19991;-44
2023/10/18 04:03:12;;;;;;;;;;;5.30;92.00;;;;;;5055401;28;19908;-45
2023/10/18 04:08:24;;;;;;;;;;;5.20;91.90;;;;;;5070969;28;20312;-43
2023/10/18 04:10:55;;;;;;;;;;;5.20;92.00;;;;;;5058170;28;19919;-44
2023/10/18 04:13:24;;;;;;;;;;;5.20;91.90;;;;;;5093310;28;19916;-44
2023/10/18 04:16:09;;;;;;;;;;;5.20;92.00;;;;;;5077921;28;19962;-43
2023/10/18 04:18:36;;;;;;;;;;;5.20;92.00;;;;;;5073191;28;20270;-44
2023/10/18 04:21:05;;;;;;;;;;;5.20;92.00;;;;;;5091366;28;19937;-44
2023/10/18 04:23:34;;;;;;;;;;;5.10;92.00;;;;;;5078236;28;19912;-43
2023/10/18 04:26:10;;;;;;;;;;;5.10;92.00;;;;;;5089048;28;19907;-46
2023/10/18 04:28:39;;;;;;;;;;;5.10;92.00;;;;;;5073451;28;19908;-44
2023/10/18 04:31:08;;;;;;;;;;;5.10;92.20;;;;;;5091901;28;20237;-44
2023/10/18 04:33:40;;;;;;;;;;;5.20;92.30;;;;;;5072079;28;19912;-44
2023/10/18 04:36:11;;;;;;;;;;;5.20;92.60;;;;;;5080046;28;20439;-44
2023/10/18 04:38:42;;;;;;;;;;;5.20;92.60;;;;;;5093213;28;20615;-44
2023/10/18 04:41:08;;;;;;;;;;;5.30;92.50;;;;;;5092964;28;19912;-45
2023/10/18 04:43:36;;;;;;;;;;;5.30;92.50;;;;;;5092240;28;19908;-45
2023/10/18 04:46:16;;;;;;;;;;;5.30;92.60;;;;;;5093920;28;19916;-43
2023/10/18 04:51:44;;;;;;;;;;;5.50;93.00;;;;;;5092903;28;20309;-43
2023/10/18 04:54:15;;;;;;;;;;;5.50;93.10;;;;;;5093097;28;19965;-43
2023/10/18 04:56:44;;;;;;;;;;;5.60;93.10;;;;;;5096121;28;19908;-44
2023/10/18 04:59:11;;;;;;;;;;;5.70;93.10;;;;;;5092202;28;19973;-45
2023/10/18 05:04:36;;;;;;;;;;;5.70;93.30;;;;;;5080545;28;20485;-44
2023/10/18 05:07:14;;;;;;;;;;;5.80;93.20;;;;;;5079399;28;19916;-44
2023/10/18 05:09:42;;;;;;;;;;;5.80;93.20;;;;;;5097381;28;19912;-43
2023/10/18 05:12:39;;;;;;;;;;;5.80;93.10;;;;;;5095403;28;19916;-45
2023/10/18 05:15:09;;;;;;;;;;;5.80;93.00;;;;;;5083621;28;19916;-43
2023/10/18 05:17:42;;;;;;;;;;;5.80;93.00;;;;;;5083140;28;19911;-46
2023/10/18 05:22:59;;;;;;;;;;;5.80;93.00;;;;;;5068619;28;19912;-44
2023/10/18 05:25:35;;;;;;;;;;;5.80;92.90;;;;;;5096871;28;19916;-45
2023/10/18 05:28:15;;;;;;;;;;;5.70;92.90;;;;;;5077421;28;19905;-45
2023/10/18 05:38:50;;;;;;;;;;;5.70;93.00;;;;;;5086011;28;19908;-44
2023/10/18 05:44:00;;;;;;;;;;;5.70;92.90;;;;;;5075357;28;20027;-45
2023/10/18 05:46:33;;;;;;;;;;;5.70;93.00;;;;;;5075763;28;20011;-46
2023/10/18 05:49:13;;;;;;;;;;;5.70;93.00;;;;;;5077780;28;19908;-46
2023/10/18 05:51:51;;;;;;;;;;;5.80;93.00;;;;;;5083388;28;19918;-44
2023/10/18 05:54:31;;;;;;;;;;;5.70;92.90;;;;;;5090076;28;20020;-44
2023/10/18 05:56:58;;;;;;;;;;;5.70;92.80;;;;;;5073969;28;19908;-46
2023/10/18 06:04:50;;;;;;;;;;;5.80;93.10;;;;;;5070767;28;19948;-44
2023/10/18 06:07:23;;;;;;;;;;;5.80;93.10;;;;;;5077871;28;19904;-44
2023/10/18 06:12:39;;;;;;;;;;;5.80;92.90;;;;;;5080333;28;19966;-46
2023/10/18 06:15:11;;;;;;;;;;;5.80;93.00;;;;;;5075715;28;19912;-45
2023/10/18 06:17:57;;;;;;;;;;;5.80;92.90;;;;;;5075473;28;19912;-43
2023/10/18 06:20:27;;;;;;;;;;;5.80;92.90;;;;;;5089605;28;19935;-46
2023/10/18 06:23:36;;;;;;;;;;;5.80;92.90;;;;;;5095172;28;20269;-46
2023/10/18 06:26:20;;;;;;;;;;;5.70;92.80;;;;;;5081340;28;19912;-45
2023/10/18 06:28:47;;;;;;;;;;;5.80;93.00;;;;;;5094839;28;19908;-45
2023/10/18 06:31:18;;;;;;;;;;;5.90;93.10;;;;;;5090213;28;19962;-44
2023/10/18 06:33:51;;;;;;;;;;;5.90;93.00;;;;;;5075004;28;20003;-45
2023/10/18 06:36:21;;;;;;;;;;;5.90;93.10;;;;;;5074558;28;19916;-45
2023/10/18 06:38:51;;;;;;;;;;;6.00;93.20;;;;;;5094506;28;19908;-45
2023/10/18 06:41:18;;;;;;;;;;;6.00;93.10;;;;;;5095317;28;19915;-45
2023/10/18 06:43:52;;;;;;;;;;;6.10;93.00;;;;;;5092254;28;19912;-45
2023/10/18 06:46:26;;;;;;;;;;;6.10;93.00;;;;;;5076898;28;20257;-44
2023/10/18 06:48:57;;;;;;;;;;;6.20;93.00;;;;;;5092051;28;19977;-47
2023/10/18 06:51:40;;;;;;;;;;;6.20;92.90;;;;;;5073951;28;20011;-46
2023/10/18 06:54:13;;;;;;;;;;;6.20;92.60;;;;;;5094770;28;20241;-46
2023/10/18 06:56:46;;;;;;;;;;;6.20;92.70;;;;;;5094852;28;20003;-47
2023/10/18 06:59:14;;;;;;;;;;;6.20;92.60;;;;;;5084172;28;20035;-44
2023/10/18 07:01:58;;;;;;;;;;;6.30;92.50;;;;;;5086392;28;20364;-44
2023/10/18 07:04:31;;;;;;;;;;;6.40;92.40;;;;;;5094768;28;19935;-46
2023/10/18 07:07:08;;;;;;;;;;;6.40;92.30;;;;;;5094591;28;19990;-45
2023/10/18 07:09:36;;;;;;;;;;;6.50;92.30;;;;;;5074387;28;19909;-46
2023/10/18 07:12:03;;;;;;;;;;;6.50;92.10;;;;;;5074111;28;19939;-45
2023/10/18 07:14:33;;;;;;;;;;;6.60;92.00;;;;;;5073922;28;19919;-45
2023/10/18 07:17:04;;;;;;;;;;;6.60;91.90;;;;;;5073980;28;19923;-46
2023/10/18 07:19:55;;;;;;;;;;;6.70;92.00;;;;;;5094384;28;19912;-48
2023/10/18 07:22:39;;;;;;;;;;;6.80;91.90;;;;;;5093685;28;20257;-44
2023/10/18 07:25:08;;;;;;;;;;;6.80;91.80;;;;;;5094694;28;19904;-46
2023/10/18 07:27:39;;;;;;;;;;;6.90;91.50;;;;;;5074463;28;19908;-44
2023/10/18 07:30:14;;;;;;;;;;;6.90;91.40;;;;;;5083892;28;19908;-45
2023/10/18 07:32:41;;;;;;;;;;;7.00;91.20;;;;;;5094234;28;20243;-44
2023/10/18 07:35:11;;;;;;;;;;;7.20;91.10;;;;;;5088618;28;19921;-45
2023/10/18 07:37:41;;;;;;;;;;;7.30;91.00;;;;;;5075462;28;19925;-45
2023/10/18 07:40:21;;;;;;;;;;;7.40;91.00;;;;;;5094251;28;19908;-45
2023/10/18 07:42:56;;;;;;;;;;;7.50;90.70;;;;;;5081994;28;19912;-45
2023/10/18 07:45:23;;;;;;;;;;;7.70;90.40;;;;;;5073790;28;19916;-44
2023/10/18 07:47:56;;;;;;;;;;;7.80;90.30;;;;;;5076628;28;20003;-45
2023/10/18 07:50:41;;;;;;;;;;;7.80;89.80;;;;;;5091220;28;19927;-45
2023/10/18 07:53:22;;;;;;;;;;;7.90;89.50;;;;;;5093353;28;19912;-47
2023/10/18 07:55:56;;;;;;;;;;;7.90;89.20;;;;;;5093958;28;19931;-48
2023/10/18 07:58:32;;;;;;;;;;;7.90;88.70;;;;;;5090525;28;20329;-48
2023/10/18 08:03:31;;;;;;;;;;;8.00;88.30;;;;;;5093717;28;20260;-45
2023/10/18 08:06:06;;;;;;;;;;;8.10;88.50;;;;;;5093498;28;20352;-46
2023/10/18 08:08:36;;;;;;;;;;;8.20;88.00;;;;;;5088330;28;20333;-45
2023/10/18 08:11:04;;;;;;;;;;;8.40;88.10;;;;;;5088949;28;19920;-46
2023/10/18 08:13:31;;;;;;;;;;;8.50;88.20;;;;;;5053029;28;19908;-47
2023/10/18 08:16:01;;;;;;;;;;;8.70;87.70;;;;;;5054532;28;19920;-45
2023/10/18 08:18:45;;;;;;;;;;;8.90;87.10;;;;;;5072366;28;19912;-45
2023/10/18 08:21:28;;;;;;;;;;;8.90;86.80;;;;;;5066953;28;19917;-47
2023/10/18 08:24:07;;;;;;;;;;;9.20;86.80;;;;;;5060095;28;19909;-47
2023/10/18 08:26:59;;;;;;;;;;;9.20;85.70;;;;;;5072385;28;19908;-48
2023/10/18 08:29:27;;;;;;;;;;;9.30;85.00;;;;;;5049503;28;19917;-48
2023/10/18 08:31:57;;;;;;;;;;;9.40;85.20;;;;;;5063988;28;20337;-46
2023/10/18 08:34:38;;;;;;;;;;;9.40;84.70;;;;;;5072300;28;19928;-49
2023/10/18 08:37:06;;;;;;;;;;;9.50;84.60;;;;;;5072121;28;20221;-46
2023/10/18 08:39:39;;;;;;;;;;;9.60;84.60;;;;;;5063538;28;19915;-48
2023/10/18 08:42:13;;;;;;;;;;;9.70;83.70;;;;;;5069110;28;19922;-48
2023/10/18 08:44:39;;;;;;;;;;;9.90;83.50;;;;;;5052862;28;20401;-49
2023/10/18 08:49:44;;;;;;;;;;;10.10;83.00;;;;;;5063344;28;20009;-49
2023/10/18 08:52:16;;;;;;;;;;;10.10;82.20;;;;;;5056426;28;19909;-51
2023/10/18 08:54:43;;;;;;;;;;;9.90;80.50;;;;;;5069904;28;20689;-47
2023/10/18 08:57:11;;;;;;;;;;;10.00;81.20;;;;;;5052631;28;20322;-48
2023/10/18 08:59:51;;;;;;;;;;;9.90;81.00;;;;;;5059996;28;19919;-51
2023/10/18 09:02:24;;;;;;;;;;;10.00;81.70;;;;;;5056691;28;19936;-49
2023/10/18 09:04:54;;;;;;;;;;;10.20;81.50;;;;;;5072722;28;19975;-49
2023/10/18 09:10:13;;;;;;;;;;;10.30;80.70;;;;;;5053040;28;19915;-47
2023/10/18 09:17:55;;;;;;;;;;;10.70;80.00;;;;;;5087142;28;19914;-47
2023/10/18 09:20:25;;;;;;;;;;;10.70;79.30;;;;;;5092825;28;19973;-53
2023/10/18 09:22:52;;;;;;;;;;;10.90;79.30;;;;;;5092880;28;20268;-48
2023/10/18 09:25:20;;;;;;;;;;;10.90;78.60;;;;;;5075264;28;19923;-47
2023/10/18 09:27:47;;;;;;;;;;;11.00;77.70;;;;;;5072649;28;19920;-49
2023/10/18 09:30:18;;;;;;;;;;;11.10;78.80;;;;;;5075617;28;19998;-48
2023/10/18 09:32:50;;;;;;;;;;;11.00;78.00;;;;;;5088299;28;19908;-48
2023/10/18 09:35:25;;;;;;;;;;;11.10;78.70;;;;;;5096433;28;19912;-53
2023/10/18 09:37:54;;;;;;;;;;;11.10;77.70;;;;;;5094526;28;20417;-51
2023/10/18 09:40:22;;;;;;;;;;;11.10;76.70;;;;;;5092646;28;19908;-54
2023/10/18 09:42:50;;;;;;;;;;;11.20;77.50;;;;;;5078223;28;19982;-49
2023/10/18 09:45:20;;;;;;;;;;;11.20;77.00;;;;;;5095069;28;19915;-48
2023/10/18 09:47:47;;;;;;;;;;;11.20;75.90;;;;;;5096398;28;19919;-47
2023/10/18 09:50:23;;;;;;;;;;;11.40;76.50;;;;;;5096379;28;19999;-51
2023/10/18 09:52:56;;;;;;;;;;;11.40;76.30;;;;;;5075859;28;19915;-51
2023/10/18 09:55:27;;;;;;;;;;;11.40;75.70;;;;;;5075021;28;19916;-52
2023/10/18 09:58:15;;;;;;;;;;;11.40;75.80;;;;;;5079098;28;20655;-54
2023/10/18 10:00:42;;;;;;;;;;;11.40;75.70;;;;;;5075846;28;19909;-48
2023/10/18 10:03:16;;;;;;;;;;;11.20;74.50;;;;;;5093359;28;20283;-50
2023/10/18 10:05:43;;;;;;;;;;;11.30;75.20;;;;;;5095707;28;19919;-54
2023/10/18 10:08:13;;;;;;;;;;;11.30;76.20;;;;;;5080747;28;20011;-53
2023/10/18 10:10:49;;;;;;;;;;;11.30;76.40;;;;;;5072110;28;19985;-54
2023/10/18 10:13:19;;;;;;;;;;;11.10;73.40;;;;;;5079615;28;19996;-53
2023/10/18 10:15:54;;;;;;;;;;;11.00;74.00;;;;;;5094491;28;19964;-54
2023/10/18 10:18:26;;;;;;;;;;;11.10;74.50;;;;;;5095605;28;19911;-48
2023/10/18 10:20:54;;;;;;;;;;;10.90;74.60;;;;;;5093624;28;19911;-52
2023/10/18 10:23:20;;;;;;;;;;;11.00;74.80;;;;;;5095162;28;19904;-51
2023/10/18 10:26:51;;;;;;;;;;;11.10;74.20;;;;;;5094911;28;20240;-55
2023/10/18 10:29:33;;;;;;;;;;;11.10;73.40;;;;;;5084689;28;19914;-48
2023/10/18 10:31:56;;;;;;;;;;;11.10;73.70;;;;;;5074520;28;19908;-49
2023/10/18 10:34:26;;;;;;;;;;;11.00;72.80;;;;;;5074748;28;19909;-49
2023/10/18 10:37:18;;;;;;;;;;;11.10;73.60;;;;;;5103763;28;20394;-48
2023/10/18 10:42:49;;;;;;;;;;;11.30;72.60;;;;;;5078017;28;19924;-51
2023/10/18 10:51:22;;;;;;;;;;;11.40;71.90;;;;;;5075188;28;19908;-52
2023/10/18 10:54:11;;;;;;;;;;;11.40;72.60;;;;;;5072206;28;19998;-50
2023/10/18 10:56:48;;;;;;;;;;;11.50;71.00;;;;;;5074705;28;19970;-51
2023/10/18 10:59:17;;;;;;;;;;;11.50;71.30;;;;;;5074809;28;19951;-50
2023/10/18 11:01:44;;;;;;;;;;;11.60;71.40;;;;;;5073831;28;19999;-53
2023/10/18 11:04:29;;;;;;;;;;;11.60;71.50;;;;;;5076350;28;19995;-49
2023/10/18 11:07:03;;;;;;;;;;;11.50;71.20;;;;;;5094806;28;19904;-53
2023/10/18 11:09:38;;;;;;;;;;;11.70;72.10;;;;;;5083636;28;19918;-50
2023/10/18 11:12:24;;;;;;;;;;;11.70;70.20;;;;;;5061617;28;19916;-52
2023/10/18 11:14:52;;;;;;;;;;;11.70;71.40;;;;;;5036713;28;20350;-52
2023/10/18 11:17:23;;;;;;;;;;;11.70;70.10;;;;;;5053727;28;19947;-51
2023/10/18 11:19:53;;;;;;;;;;;11.70;68.90;;;;;;5043768;28;20265;-52
2023/10/18 11:22:23;;;;;;;;;;;11.60;70.00;;;;;;5054234;28;19939;-54
2023/10/18 11:24:50;;;;;;;;;;;11.60;71.00;;;;;;5019685;28;19919;-50
2023/10/18 11:27:23;;;;;;;;;;;11.60;72.00;;;;;;5049196;28;19909;-53
2023/10/18 11:30:39;;;;;;;;;;;11.60;70.40;;;;;;5034190;28;19932;-51
2023/10/18 11:32:52;;;;;;;;;;;11.50;70.10;;;;;;5033663;28;20261;-50
2023/10/18 11:35:48;;;;;;;;;;;11.50;70.40;;;;;;5033998;28;19920;-49
2023/10/18 11:38:14;;;;;;;;;;;11.50;70.40;;;;;;5040327;28;19951;-53
2023/10/18 11:40:41;;;;;;;;;;;11.60;70.60;;;;;;5054111;28;19916;-50
2023/10/18 11:43:11;;;;;;;;;;;11.70;71.30;;;;;;5052334;28;19912;-52
2023/10/18 11:45:38;;;;;;;;;;;11.80;72.90;;;;;;5033741;28;19909;-50
2023/10/18 11:48:16;;;;;;;;;;;11.80;72.00;;;;;;5036253;28;19962;-52
2023/10/18 11:51:02;;;;;;;;;;;11.80;70.80;;;;;;5053314;28;19916;-51
2023/10/18 11:53:29;;;;;;;;;;;11.80;70.90;;;;;;5048722;28;19913;-54
2023/10/18 11:55:55;;;;;;;;;;;11.80;71.20;;;;;;5052356;28;19916;-54
2023/10/18 11:58:28;;;;;;;;;;;11.60;71.10;;;;;;5053321;28;19909;-54
2023/10/18 12:01:05;;;;;;;;;;;11.60;70.30;;;;;;5052036;28;19908;-52
2023/10/18 12:03:38;;;;;;;;;;;11.50;70.50;;;;;;5038436;28;19913;-51
2023/10/18 12:06:11;;;;;;;;;;;11.50;70.50;;;;;;5033415;28;19909;-48
2023/10/18 12:09:30;;;;;;;;;;;11.50;71.20;;;;;;5033577;28;19940;-50
2023/10/18 12:11:29;;;;;;;;;;;11.50;71.40;;;;;;5020638;28;20506;-49
2023/10/18 12:13:56;;;;;;;;;;;11.50;71.50;;;;;;5059597;28;19908;-52
2023/10/18 12:16:23;;;;;;;;;;;11.50;72.30;;;;;;5073267;28;20337;-49
2023/10/18 12:18:52;;;;;;;;;;;11.50;72.00;;;;;;5073282;28;19912;-53
2023/10/18 12:21:26;;;;;;;;;;;11.50;71.50;;;;;;5072516;28;19915;-54
2023/10/18 12:23:55;;;;;;;;;;;11.40;71.30;;;;;;5056261;28;19920;-55
2023/10/18 12:26:24;;;;;;;;;;;11.40;72.00;;;;;;5072253;28;20356;-52
2023/10/18 12:28:55;;;;;;;;;;;11.40;72.10;;;;;;5066375;28;19932;-51
2023/10/18 12:31:34;;;;;;;;;;;11.50;73.30;;;;;;5053105;28;19951;-55
2023/10/18 12:34:02;;;;;;;;;;;11.40;72.30;;;;;;5052189;28;19956;-49
2023/10/18 12:36:39;;;;;;;;;;;11.50;73.00;;;;;;5071336;28;19912;-48
2023/10/18 12:39:09;;;;;;;;;;;11.50;72.10;;;;;;5071543;28;19908;-48
2023/10/18 12:41:40;;;;;;;;;;;11.50;72.30;;;;;;5070639;28;20241;-52
2023/10/18 12:44:11;;;;;;;;;;;11.50;72.80;;;;;;5073086;28;19908;-50
2023/10/18 12:46:37;;;;;;;;;;;11.50;71.50;;;;;;5072829;28;19908;-53
2023/10/18 12:49:10;;;;;;;;;;;11.40;71.50;;;;;;5070526;28;19909;-53
2023/10/18 12:51:41;;;;;;;;;;;11.40;72.00;;;;;;5052826;28;19959;-54
2023/10/18 12:54:19;;;;;;;;;;;11.30;72.20;;;;;;5058050;28;19916;-53
2023/10/18 12:59:39;;;;;;;;;;;11.30;72.10;;;;;;5052968;28;19916;-54
2023/10/18 13:02:11;;;;;;;;;;;11.30;71.90;;;;;;5052894;28;19912;-53
2023/10/18 13:04:38;;;;;;;;;;;11.30;72.20;;;;;;5061613;28;19909;-55
2023/10/18 13:07:19;;;;;;;;;;;11.30;72.80;;;;;;5067596;28;20408;-52
2023/10/18 13:09:49;;;;;;;;;;;11.30;73.30;;;;;;5084129;28;19908;-50
2023/10/18 13:12:16;;;;;;;;;;;11.30;72.60;;;;;;5082949;28;20249;-49
2023/10/18 13:14:44;;;;;;;;;;;11.30;72.90;;;;;;5070023;28;19908;-51
2023/10/18 13:17:10;;;;;;;;;;;11.30;72.60;;;;;;5056384;28;20241;-48
2023/10/18 13:19:45;;;;;;;;;;;11.20;72.60;;;;;;5056650;28;19908;-53
2023/10/18 13:22:17;;;;;;;;;;;11.20;72.80;;;;;;5057090;28;19932;-50
2023/10/18 13:24:45;;;;;;;;;;;11.20;72.10;;;;;;5054945;28;19909;-52
2023/10/18 13:27:18;;;;;;;;;;;11.20;72.50;;;;;;5038931;28;19919;-51
2023/10/18 13:32:47;;;;;;;;;;;11.20;72.70;;;;;;5033019;28;20353;-53
2023/10/18 13:35:18;;;;;;;;;;;11.20;73.00;;;;;;5045053;28;19912;-55
2023/10/18 13:37:48;;;;;;;;;;;11.20;72.90;;;;;;5046781;28;19909;-54
2023/10/18 13:40:23;;;;;;;;;;;11.20;73.20;;;;;;5044378;28;19913;-48
2023/10/18 13:42:54;;;;;;;;;;;11.20;72.20;;;;;;5056376;28;19909;-51
2023/10/18 13:45:28;;;;;;;;;;;11.10;73.60;;;;;;5056062;28;20351;-53
2023/10/18 13:47:58;;;;;;;;;;;11.00;73.70;;;;;;5038573;28;19916;-50
2023/10/18 13:50:25;;;;;;;;;;;11.00;73.40;;;;;;5055967;28;19908;-53
2023/10/18 13:52:51;;;;;;;;;;;11.00;74.30;;;;;;5055839;28;20242;-52
2023/10/18 13:55:18;;;;;;;;;;;11.00;74.60;;;;;;5053790;28;19924;-49
2023/10/18 13:57:45;;;;;;;;;;;11.00;74.70;;;;;;5055584;28;19928;-54
2023/10/18 14:00:14;;;;;;;;;;;11.00;74.90;;;;;;5038921;28;19975;-54
2023/10/18 14:02:41;;;;;;;;;;;11.00;74.90;;;;;;5056056;28;19972;-53
2023/10/18 14:05:10;;;;;;;;;;;11.00;75.20;;;;;;5045616;28;19962;-54
2023/10/18 14:07:37;;;;;;;;;;;10.90;74.90;;;;;;5036158;28;19905;-54
2023/10/18 14:10:41;;;;;;;;;;;10.90;75.20;;;;;;5037753;28;19913;-53
2023/10/18 14:13:03;;;;;;;;;;;10.90;75.50;;;;;;5054236;28;20392;-54
2023/10/18 14:15:33;;;;;;;;;;;10.90;75.30;;;;;;5055887;28;19913;-52
2023/10/18 14:18:01;;;;;;;;;;;10.90;75.00;;;;;;5037755;28;19970;-53
2023/10/18 14:20:32;;;;;;;;;;;10.90;75.20;;;;;;5055430;28;19908;-50
2023/10/18 14:23:06;;;;;;;;;;;10.90;74.50;;;;;;5035675;28;19949;-51
2023/10/18 14:25:37;;;;;;;;;;;10.90;75.40;;;;;;5039412;28;19927;-54
2023/10/18 14:28:05;;;;;;;;;;;10.90;75.10;;;;;;5052689;28;19912;-55
2023/10/18 14:30:36;;;;;;;;;;;10.90;75.90;;;;;;5038649;28;19909;-49
2023/10/18 14:33:04;;;;;;;;;;;10.90;76.20;;;;;;5050310;28;19943;-55
2023/10/18 14:35:31;;;;;;;;;;;10.90;76.00;;;;;;5044616;28;20364;-51
2023/10/18 14:38:06;;;;;;;;;;;10.90;76.30;;;;;;5035456;28;20327;-52
2023/10/18 14:40:34;;;;;;;;;;;10.80;76.60;;;;;;5021434;28;19909;-54
2023/10/18 14:43:03;;;;;;;;;;;10.80;76.70;;;;;;5052314;28;19995;-52
2023/10/18 14:45:40;;;;;;;;;;;10.70;76.30;;;;;;5055190;28;19916;-56
2023/10/18 14:48:07;;;;;;;;;;;10.70;76.10;;;;;;5037604;28;19916;-52
2023/10/18 14:50:35;;;;;;;;;;;10.70;76.10;;;;;;5042822;28;19916;-49
2023/10/18 14:53:07;;;;;;;;;;;10.70;77.00;;;;;;5034658;28;19908;-50
2023/10/18 14:55:38;;;;;;;;;;;10.70;77.10;;;;;;5048455;28;20003;-52
2023/10/18 14:58:03;;;;;;;;;;;10.60;77.60;;;;;;5054747;28;19927;-48
2023/10/18 15:00:30;;;;;;;;;;;10.50;77.30;;;;;;5037558;28;20288;-52
2023/10/18 15:02:56;;;;;;;;;;;10.50;77.20;;;;;;5054558;28;19919;-49
2023/10/18 15:05:21;;;;;;;;;;;10.50;77.50;;;;;;5048337;28;20308;-48
2023/10/18 15:07:48;;;;;;;;;;;10.40;77.30;;;;;;5054490;28;20112;-52
2023/10/18 15:10:20;;;;;;;;;;;10.40;77.30;;;;;;5053091;28;20330;-54
2023/10/18 15:12:59;;;;;;;;;;;10.40;77.40;;;;;;5073423;28;19916;-54
2023/10/18 15:15:27;;;;;;;;;;;10.30;77.40;;;;;;5074107;28;20322;-53
2023/10/18 15:17:54;;;;;;;;;;;10.30;77.40;;;;;;5074749;28;19904;-51
2023/10/18 15:20:22;;;;;;;;;;;10.30;77.50;;;;;;5064929;28;19909;-54
2023/10/18 15:22:54;;;;;;;;;;;10.20;77.80;;;;;;5054358;28;20373;-49
2023/10/18 15:25:21;;;;;;;;;;;10.20;77.80;;;;;;5067738;28;20258;-50
2023/10/18 15:27:47;;;;;;;;;;;10.20;78.10;;;;;;5074063;28;19904;-50
2023/10/18 15:30:19;;;;;;;;;;;10.10;78.40;;;;;;5071971;28;19920;-55
2023/10/18 15:32:46;;;;;;;;;;;10.10;79.10;;;;;;5074171;28;19959;-51
2023/10/18 15:35:12;;;;;;;;;;;10.10;79.10;;;;;;5060049;28;19923;-53
2023/10/18 15:37:40;;;;;;;;;;;10.00;78.90;;;;;;5054046;28;19908;-50
2023/10/18 15:40:13;;;;;;;;;;;10.00;78.20;;;;;;5062833;28;19967;-54
2023/10/18 15:42:42;;;;;;;;;;;9.90;78.30;;;;;;5052927;28;19921;-54
2023/10/18 15:45:17;;;;;;;;;;;9.90;78.50;;;;;;5053386;28;20300;-54
2023/10/18 15:47:43;;;;;;;;;;;9.90;78.90;;;;;;5054128;28;19904;-51
2023/10/18 15:50:13;;;;;;;;;;;9.80;79.20;;;;;;5065265;28;20300;-55
2023/10/18 15:52:40;;;;;;;;;;;9.80;79.60;;;;;;5073284;28;20726;-53
2023/10/18 15:55:13;;;;;;;;;;;9.80;79.00;;;;;;5073039;28;19912;-53
2023/10/18 15:57:42;;;;;;;;;;;9.70;79.50;;;;;;5067233;28;19913;-50